South Houston, TX (77587)

8:53 PM CDT on May 22, 2015 (GMT -0500)
South Houston | | Change Station
CLOSE
Current Station
Personal Weather Station
Location: South Houston, TX
Elevation: 52 ft
Nearby Weather Stations

Elev 52 ft 29.67 °N, 95.22 °W | Updated 20 seconds ago

Mostly Cloudy
Mostly Cloudy
78.3 °F
Feels Like 80 °F
N
3.8
Wind Variable Wind from East
Gusts 6.9 mph

Today
High -- | Low -- °F
--% Chance of Precip.
Yesterday
High -- | Low -- °F
Precip. -- in
6:24 AM 8:10 PM
Waxing Crescent, 25% visible
Pressure 30.09 in
Visibility 10.0 miles
Clouds Mostly Cloudy 1700 ft
Mostly Cloudy 2700 ft
Heat Index 80 °F
Dew Point 66 °F
Humidity 65%
Rainfall 0.00 in
Snow Depth Not available.
UV 0.0 out of 12
Pollen 3.80 out of 12
Air Quality Not available.
Flu Activity Sporadic
METAR KHOU 230053Z 09008KT 10SM BKN017 BKN027 26/22 A3007 RMK AO2 SLP188 BLDG CU S T02560222

More Conditions Fewer Conditions

Pressure 30.09 in
Visibility 10.0 miles
Clouds Mostly Cloudy 1700 ft
Mostly Cloudy 2700 ft
Heat Index 80 °F
Dew Point 66 °F
Humidity 65%
Rainfall 0.00 in
Snow Depth Not available.
UV 0.0 out of 12
Pollen 3.80 out of 12
Air Quality Not available.
Flu Activity Sporadic
METAR KHOU 230053Z 09008KT 10SM BKN017 BKN027 26/22 A3007 RMK AO2 SLP188 BLDG CU S T02560222

More Conditions Fewer Conditions

10-Day Weather Forecast

Almanac

Astronomy

May. 22, 2015 Rise Set
Actual Time
Civil Twilight
Nautical Twilight
Astronomical Twilight
Moon
Length of Visible Light
Length of Day
Tomorrow will be .
, % of the Moon is Illuminated

Today's Extremes

State Highs State Lows

Community

WunderPhotos

Upload Photos

1,823,360 photos uploaded!

WunderBlogs® & News

Nearby

Air Quality

  Air Quality AQ Index Pollutant
Not available.

Snow Depth

Station Depth Elevation

Earthquake Activity

City Distance Mag. Time & Date
Minimum magnitude displayed is 2.5.

Coastal Water Temperatures

Place Temperature

Stations

Nearby Weather Stations

Station Location Temp. Windchill Dew Point Humidity Wind Precip. Elev Updated Type